Time;durP1;ratioP1;P1;durP2;ratioP2;P2;SDS_P1;SDS_P2;PMS_P1;PMS_P2;Temp;Humidity;BMP_temperature;BMP_pressure;BME280_temperature;BME280_humidity;BME280_pressure;Samples;Min_cycle;Max_cycle;Signal;HPM_P1;HPM_P2
2023/03/07 00:00:46;;;;;;;28.88;13.73;;;;;;;2.81;100.00;91319.03;6212175;23;20004;-76
2023/03/07 00:03:13;;;;;;;23.73;13.15;;;;;;;2.84;100.00;91314.09;6213936;23;20013;-77
2023/03/07 00:05:39;;;;;;;23.95;13.15;;;;;;;2.90;100.00;91317.41;6214958;23;20009;-76
2023/03/07 00:08:05;;;;;;;24.38;12.82;;;;;;;2.93;100.00;91311.72;6215161;23;20092;-77
2023/03/07 00:10:31;;;;;;;22.75;13.05;;;;;;;2.95;100.00;91312.25;6187694;23;20013;-77
2023/03/07 00:12:56;;;;;;;24.23;13.48;;;;;;;2.99;100.00;91313.22;6214089;23;20000;-77
2023/03/07 00:15:22;;;;;;;23.88;12.43;;;;;;;3.02;100.00;91309.34;6163005;23;20017;-77
2023/03/07 00:17:48;;;;;;;21.98;13.05;;;;;;;3.05;100.00;91309.56;6187698;23;20016;-76
2023/03/07 00:20:14;;;;;;;23.35;14.07;;;;;;;3.09;100.00;91308.00;6213731;23;20417;-76
2023/03/07 00:22:40;;;;;;;25.17;13.70;;;;;;;3.11;100.00;91303.34;6187170;23;20017;-76
2023/03/07 00:25:05;;;;;;;23.90;12.23;;;;;;;3.15;100.00;91300.19;6214778;23;20001;-77
2023/03/07 00:27:32;;;;;;;26.48;13.40;;;;;;;3.18;100.00;91297.09;6186691;23;20044;-77
2023/03/07 00:29:58;;;;;;;24.52;13.20;;;;;;;3.22;100.00;91303.25;6214448;23;20000;-77
2023/03/07 00:32:25;;;;;;;22.00;12.68;;;;;;;3.27;100.00;91295.47;6186592;23;20440;-76
2023/03/07 00:34:50;;;;;;;24.02;13.15;;;;;;;3.28;100.00;91295.19;6214604;23;20059;-77
2023/03/07 00:37:16;;;;;;;27.00;13.02;;;;;;;3.24;100.00;91299.38;6213822;23;20013;-77
2023/03/07 00:39:41;;;;;;;23.65;13.55;;;;;;;3.28;100.00;91302.94;6187591;23;20059;-77
2023/03/07 00:42:07;;;;;;;24.45;13.52;;;;;;;3.24;100.00;91301.97;6186922;23;20040;-77
2023/03/07 00:44:33;;;;;;;27.25;14.23;;;;;;;3.15;100.00;91284.69;6162461;23;20032;-77
2023/03/07 00:46:59;;;;;;;23.63;13.45;;;;;;;3.23;100.00;91294.47;6214142;23;20058;-76
2023/03/07 00:49:25;;;;;;;26.98;13.45;;;;;;;3.22;100.00;91298.09;6186435;23;20009;-77
2023/03/07 00:51:51;;;;;;;27.40;13.65;;;;;;;3.22;100.00;91293.72;6186776;23;20004;-77
2023/03/07 00:54:17;;;;;;;25.60;13.48;;;;;;;3.22;100.00;91293.72;6161665;23;20013;-78
2023/03/07 00:56:43;;;;;;;27.48;14.00;;;;;;;3.21;100.00;91292.16;6213856;23;20000;-77
2023/03/07 00:59:10;;;;;;;25.92;14.00;;;;;;;3.22;100.00;91292.91;6162479;23;20012;-77
2023/03/07 01:01:36;;;;;;;22.60;13.30;;;;;;;3.18;100.00;91274.59;6186875;23;20070;-77
2023/03/07 01:04:02;;;;;;;25.13;13.45;;;;;;;3.22;100.00;91279.97;6187141;23;20095;-76
2023/03/07 01:06:30;;;;;;;23.95;13.93;;;;;;;3.23;100.00;91274.53;6213250;23;20046;-76
2023/03/07 01:08:59;;;;;;;26.65;14.13;;;;;;;3.29;100.00;91277.88;6186766;23;20100;-76
2023/03/07 01:11:26;;;;;;;23.02;12.98;;;;;;;3.31;100.00;91273.19;6186657;23;20452;-76
2023/03/07 01:13:55;;;;;;;24.08;13.25;;;;;;;3.32;100.00;91275.50;6187010;23;20039;-76
2023/03/07 01:16:25;;;;;;;24.35;12.35;;;;;;;3.37;100.00;91277.28;6162776;23;20021;-76
2023/03/07 01:18:53;;;;;;;21.88;12.32;;;;;;;3.39;100.00;91282.19;6186703;23;20436;-77
2023/03/07 01:21:27;;;;;;;22.70;12.23;;;;;;;3.32;100.00;91280.69;6162218;23;20004;-77
2023/03/07 01:23:53;;;;;;;20.52;12.18;;;;;;;3.29;100.00;91278.66;6186984;23;20484;-77
2023/03/07 01:26:22;;;;;;;22.67;12.98;;;;;;;3.26;100.00;91278.41;6186828;23;20009;-77
2023/03/07 01:28:50;;;;;;;20.67;12.05;;;;;;;3.22;100.00;91282.56;6213240;23;19997;-77
2023/03/07 01:31:16;;;;;;;20.55;12.00;;;;;;;3.16;100.00;91276.66;6187130;23;20020;-77
2023/03/07 01:33:42;;;;;;;23.80;12.52;;;;;;;3.12;100.00;91279.00;6162154;23;20020;-77
2023/03/07 01:36:29;;;;;;;21.10;12.40;;;;;;;3.07;100.00;91276.47;6161883;23;20336;-76
2023/03/07 01:39:13;;;;;;;23.65;12.45;;;;;;;3.05;100.00;91268.22;6186085;23;20476;-77
2023/03/07 01:41:44;;;;;;;21.10;11.02;;;;;;;3.07;100.00;91263.53;6186678;23;20199;-77
2023/03/07 01:44:20;;;;;;;23.65;11.65;;;;;;;3.03;100.00;91262.53;6213429;23;20016;-76
2023/03/07 01:46:52;;;;;;;24.60;11.75;;;;;;;3.04;100.00;91256.34;6186737;23;20035;-77
2023/03/07 01:49:26;;;;;;;20.15;10.77;;;;;;;3.03;100.00;91249.59;6187060;23;20016;-77
2023/03/07 01:52:06;;;;;;;18.48;10.50;;;;;;;2.97;100.00;91237.75;6186768;23;20005;-77
2023/03/07 01:54:38;;;;;;;18.63;10.85;;;;;;;3.04;100.00;91246.00;6185837;23;20016;-77
2023/03/07 01:57:04;;;;;;;17.13;10.57;;;;;;;3.06;100.00;91246.50;6186695;23;20012;-76
2023/03/07 01:59:33;;;;;;;24.10;10.32;;;;;;;3.07;100.00;91242.09;6186517;23;20012;-76
2023/03/07 02:02:07;;;;;;;19.70;10.80;;;;;;;3.12;100.00;91242.03;6186398;23;20404;-77
2023/03/07 02:04:43;;;;;;;20.48;10.60;;;;;;;3.13;100.00;91239.19;6186418;23;20031;-77
2023/03/07 02:07:09;;;;;;;21.42;10.25;;;;;;;3.20;100.00;91228.53;6186742;23;20019;-77
2023/03/07 02:09:37;;;;;;;18.75;10.23;;;;;;;3.25;100.00;91232.91;6186111;23;20025;-77
2023/03/07 02:12:03;;;;;;;20.65;10.57;;;;;;;3.24;100.00;91233.94;6213605;23;20452;-77
2023/03/07 02:14:29;;;;;;;18.85;9.68;;;;;;;3.25;100.00;91230.31;6186501;23;20333;-77
2023/03/07 02:16:55;;;;;;;20.55;10.13;;;;;;;3.22;100.00;91223.09;6161794;23;20021;-77
2023/03/07 02:19:46;;;;;;;22.50;9.80;;;;;;;3.26;100.00;91221.50;6186635;23;20091;-77
2023/03/07 02:22:17;;;;;;;21.88;9.82;;;;;;;3.23;100.00;91219.47;6186912;23;20365;-77
2023/03/07 02:24:55;;;;;;;18.25;9.45;;;;;;;3.24;100.00;91219.22;6186814;23;20100;-77
2023/03/07 02:27:26;;;;;;;18.48;10.15;;;;;;;3.22;100.00;91220.50;6186522;23;20019;-76
2023/03/07 02:29:52;;;;;;;15.05;9.00;;;;;;;3.19;100.00;91221.81;6186899;23;20016;-77
2023/03/07 02:32:17;;;;;;;17.67;9.85;;;;;;;3.14;100.00;91208.94;6161706;23;20000;-77
2023/03/07 02:34:43;;;;;;;17.38;9.23;;;;;;;3.12;100.00;91211.78;6161428;23;20017;-77
2023/03/07 02:37:33;;;;;;;24.58;10.27;;;;;;;3.10;100.00;91206.09;6186452;23;20027;-77
2023/03/07 02:40:05;;;;;;;17.95;9.32;;;;;;;3.08;100.00;91205.59;6186194;23;20012;-77
2023/03/07 02:42:34;;;;;;;16.15;9.35;;;;;;;3.08;100.00;91204.84;6185947;23;20016;-77
2023/03/07 02:45:10;;;;;;;15.77;9.25;;;;;;;3.04;100.00;91204.63;6186221;23;20339;-77
2023/03/07 02:47:38;;;;;;;18.25;9.70;;;;;;;3.01;100.00;91196.63;6186505;23;20009;-77
2023/03/07 02:50:05;;;;;;;16.80;9.13;;;;;;;2.99;100.00;91202.06;6211293;23;20491;-77
2023/03/07 02:52:31;;;;;;;18.35;9.45;;;;;;;2.92;100.00;91196.44;6188000;23;20017;-77
2023/03/07 02:54:57;;;;;;;18.05;9.20;;;;;;;2.90;100.00;91207.06;6188177;23;20003;-77
2023/03/07 02:57:26;;;;;;;15.88;9.30;;;;;;;2.89;100.00;91204.75;6187422;23;20016;-77
2023/03/07 02:59:51;;;;;;;21.13;9.55;;;;;;;2.89;100.00;91207.31;6187742;23;20024;-77
2023/03/07 03:02:17;;;;;;;17.55;9.07;;;;;;;2.91;100.00;91205.25;6188121;23;20338;-77
2023/03/07 03:04:43;;;;;;;17.73;9.13;;;;;;;2.91;100.00;91205.25;6188064;23;20020;-76
2023/03/07 03:07:09;;;;;;;18.63;8.82;;;;;;;2.90;100.00;91206.25;6214890;23;20083;-76
2023/03/07 03:09:35;;;;;;;16.98;9.18;;;;;;;2.92;100.00;91206.78;6187807;23;20307;-77
2023/03/07 03:12:02;;;;;;;18.20;9.25;;;;;;;2.92;100.00;91206.78;6162906;23;20437;-76
2023/03/07 03:14:29;;;;;;;17.55;9.02;;;;;;;2.95;100.00;91206.25;6164280;23;20000;-77
2023/03/07 03:16:55;;;;;;;15.90;8.85;;;;;;;2.99;100.00;91214.22;6188014;23;20021;-76
2023/03/07 03:19:20;;;;;;;18.35;9.50;;;;;;;3.00;100.00;91208.78;6188473;23;20029;-76
2023/03/07 03:21:47;;;;;;;17.38;8.98;;;;;;;3.03;100.00;91210.81;6187415;23;20012;-77
2023/03/07 03:24:13;;;;;;;16.20;8.90;;;;;;;3.07;100.00;91214.41;6188043;23;20096;-77
2023/03/07 03:26:39;;;;;;;17.80;9.30;;;;;;;3.09;100.00;91216.75;6188247;23;20017;-77
2023/03/07 03:29:06;;;;;;;22.58;9.95;;;;;;;3.10;100.00;91219.03;6163700;23;20013;-77
2023/03/07 03:31:32;;;;;;;19.27;9.55;;;;;;;3.11;100.00;91215.41;6187546;23;20340;-77
2023/03/07 03:33:59;;;;;;;17.10;8.93;;;;;;;3.11;100.00;91220.59;6187945;23;20016;-77
2023/03/07 03:36:26;;;;;;;21.73;9.20;;;;;;;3.11;100.00;91214.66;6163366;23;20017;-77
2023/03/07 03:38:58;;;;;;;18.35;9.63;;;;;;;3.12;100.00;91222.13;6164457;23;20017;-77
2023/03/07 03:41:24;;;;;;;18.33;9.05;;;;;;;3.12;100.00;91206.59;6187602;23;20017;-77
2023/03/07 03:43:51;;;;;;;19.38;8.93;;;;;;;3.16;100.00;91217.19;6163381;23;20354;-76
2023/03/07 03:46:19;;;;;;;16.48;9.35;;;;;;;3.16;100.00;91216.44;6212479;23;20135;-77
2023/03/07 03:48:51;;;;;;;20.65;10.13;;;;;;;3.16;100.00;91214.59;6214062;23;20474;-77
2023/03/07 03:51:17;;;;;;;22.38;11.00;;;;;;;3.17;100.00;91218.72;6213095;23;20015;-77
2023/03/07 03:53:42;;;;;;;15.25;9.88;;;;;;;3.19;100.00;91218.47;6188150;23;20340;-77
2023/03/07 03:56:12;;;;;;;19.33;10.40;;;;;;;3.19;100.00;91223.63;6188291;23;20019;-77
2023/03/07 03:58:39;;;;;;;16.92;9.57;;;;;;;3.17;100.00;91210.19;6187681;23;20013;-77
2023/03/07 04:01:07;;;;;;;19.15;10.00;;;;;;;3.18;100.00;91214.34;6187496;23;20004;-76
2023/03/07 04:03:35;;;;;;;17.67;10.20;;;;;;;3.16;100.00;91206.09;6200422;23;20013;-76
2023/03/07 04:06:06;;;;;;;17.35;10.27;;;;;;;3.16;100.00;91208.66;6213128;23;20028;-77
2023/03/07 04:08:33;;;;;;;17.65;10.27;;;;;;;3.12;100.00;91200.66;6214330;23;20040;-77
2023/03/07 04:10:59;;;;;;;18.52;10.23;;;;;;;3.12;100.00;91203.25;6212450;23;20012;-77
2023/03/07 04:13:25;;;;;;;18.20;10.55;;;;;;;3.12;100.00;91204.03;6212636;23;20015;-77
2023/03/07 04:15:53;;;;;;;17.40;10.77;;;;;;;3.08;100.00;91203.00;6214518;23;20067;-77
2023/03/07 04:18:20;;;;;;;21.63;10.68;;;;;;;3.07;100.00;91206.66;6212795;23;20023;-77
2023/03/07 04:20:46;;;;;;;18.48;10.30;;;;;;;3.05;100.00;91211.31;6213972;23;20066;-77
2023/03/07 04:23:12;;;;;;;20.00;10.60;;;;;;;3.07;100.00;91205.91;6212667;23;20011;-77
2023/03/07 04:25:37;;;;;;;17.85;10.10;;;;;;;3.10;100.00;91206.09;6212911;23;20027;-77
2023/03/07 04:28:03;;;;;;;18.50;10.38;;;;;;;3.10;100.00;91200.94;6212135;23;20036;-77
2023/03/07 04:30:29;;;;;;;20.48;10.80;;;;;;;3.12;100.00;91198.84;6212290;23;20012;-77
2023/03/07 04:32:55;;;;;;;19.35;10.85;;;;;;;3.16;100.00;91206.09;6212495;23;20087;-77
2023/03/07 04:35:21;;;;;;;24.80;11.23;;;;;;;3.17;100.00;91212.78;6212998;23;20013;-77
2023/03/07 04:37:49;;;;;;;20.92;10.45;;;;;;;3.19;100.00;91218.47;6212275;23;20070;-77
2023/03/07 04:40:15;;;;;;;19.17;10.13;;;;;;;3.20;100.00;91215.63;6213924;23;20015;-77
2023/03/07 04:42:40;;;;;;;19.08;10.73;;;;;;;3.23;100.00;91227.22;6187320;23;20021;-76
2023/03/07 04:45:07;;;;;;;23.95;11.02;;;;;;;3.26;100.00;91224.09;6212687;23;20102;-76
2023/03/07 04:47:32;;;;;;;20.25;10.38;;;;;;;3.28;100.00;91225.34;6213988;23;20090;-78
2023/03/07 04:49:58;;;;;;;23.35;11.63;;;;;;;3.31;100.00;91229.22;6187470;23;20016;-77
2023/03/07 04:52:24;;;;;;;17.30;10.23;;;;;;;3.33;100.00;91220.16;6186715;23;20334;-76
2023/03/07 04:54:51;;;;;;;24.20;11.82;;;;;;;3.33;100.00;91216.78;6212241;23;20027;-76
2023/03/07 04:57:18;;;;;;;19.83;11.35;;;;;;;3.40;100.00;91224.22;6212641;23;20444;-76
2023/03/07 04:59:44;;;;;;;18.73;10.88;;;;;;;3.42;100.00;91232.47;6186866;23;20017;-77
2023/03/07 05:02:11;;;;;;;25.30;11.43;;;;;;;3.44;100.00;91227.81;6211788;23;20016;-77
2023/03/07 05:04:37;;;;;;;18.15;9.88;;;;;;;3.51;100.00;91223.88;6187418;23;20504;-77
2023/03/07 05:07:03;;;;;;;20.67;10.90;;;;;;;3.52;100.00;91232.41;6187317;23;20088;-77
2023/03/07 05:09:30;;;;;;;24.42;11.68;;;;;;;3.53;100.00;91232.16;6186535;23;20035;-77
2023/03/07 05:11:57;;;;;;;19.27;10.95;;;;;;;3.54;100.00;91227.72;6187755;23;20000;-77
2023/03/07 05:14:23;;;;;;;22.42;10.23;;;;;;;3.55;100.00;91218.91;6187623;23;20351;-77
2023/03/07 05:16:48;;;;;;;20.38;10.13;;;;;;;3.69;100.00;91224.22;6162745;23;20074;-77
2023/03/07 05:19:14;;;;;;;22.23;11.13;;;;;;;3.65;100.00;91228.41;6214095;23;20005;-77
2023/03/07 05:21:40;;;;;;;18.90;10.82;;;;;;;3.61;100.00;91225.59;6162575;23;20408;-77
2023/03/07 05:24:07;;;;;;;20.67;11.13;;;;;;;3.59;100.00;91230.25;6187189;23;20021;-77
2023/03/07 05:26:33;;;;;;;19.90;10.75;;;;;;;3.54;100.00;91220.72;6187389;23;20004;-76
2023/03/07 05:28:59;;;;;;;18.92;11.05;;;;;;;3.57;100.00;91231.59;6187606;23;20015;-77
2023/03/07 05:31:25;;;;;;;18.77;11.23;;;;;;;3.54;100.00;91228.50;6187046;23;20008;-77
2023/03/07 05:33:51;;;;;;;20.83;10.82;;;;;;;3.59;100.00;91232.09;6158837;23;20008;-77
2023/03/07 05:36:17;;;;;;;24.35;11.10;;;;;;;3.58;100.00;91230.53;6161962;23;20024;-77
2023/03/07 05:38:43;;;;;;;22.58;10.93;;;;;;;3.56;100.00;91228.22;6185508;23;20477;-76
2023/03/07 05:41:08;;;;;;;18.10;10.52;;;;;;;3.57;100.00;91221.22;6162629;23;20005;-76
2023/03/07 05:43:34;;;;;;;19.58;10.77;;;;;;;3.60;100.00;91234.38;6187504;23;20104;-77
2023/03/07 05:46:00;;;;;;;18.52;10.27;;;;;;;3.58;100.00;91223.56;6184757;23;20098;-76
2023/03/07 05:48:26;;;;;;;19.50;10.57;;;;;;;3.59;100.00;91219.16;6210799;23;20004;-77
2023/03/07 05:50:52;;;;;;;16.52;9.52;;;;;;;3.61;100.00;91227.41;6185686;23;20020;-77
2023/03/07 05:53:18;;;;;;;17.75;9.80;;;;;;;3.60;100.00;91231.03;6184639;23;20016;-76
2023/03/07 05:55:44;;;;;;;16.85;9.52;;;;;;;3.55;100.00;91224.84;6184533;23;20008;-77
2023/03/07 05:58:10;;;;;;;21.75;10.40;;;;;;;3.53;100.00;91221.78;6183634;23;20044;-77
2023/03/07 06:00:36;;;;;;;19.30;9.45;;;;;;;3.52;100.00;91225.41;6185143;23;20016;-77
2023/03/07 06:03:02;;;;;;;18.63;10.52;;;;;;;3.50;100.00;91221.56;6193700;23;20453;-77
2023/03/07 06:05:29;;;;;;;18.63;9.98;;;;;;;3.49;100.00;91222.59;6209135;23;20012;-77
2023/03/07 06:07:55;;;;;;;17.83;9.98;;;;;;;3.49;100.00;91225.16;6207962;23;20012;-77
2023/03/07 06:10:21;;;;;;;19.20;10.48;;;;;;;3.47;100.00;91228.06;6210606;23;20027;-76
2023/03/07 06:12:51;;;;;;;17.75;9.73;;;;;;;3.44;100.00;91235.56;6186179;23;20005;-77
2023/03/07 06:15:18;;;;;;;17.30;10.07;;;;;;;3.43;100.00;91239.97;6213118;23;20436;-77
2023/03/07 06:17:44;;;;;;;16.42;8.98;;;;;;;3.43;100.00;91234.03;6187847;23;20066;-76
2023/03/07 06:20:10;;;;;;;16.55;9.50;;;;;;;3.43;100.00;91234.81;6162994;23;19992;-76
2023/03/07 06:22:39;;;;;;;17.13;9.43;;;;;;;3.43;100.00;91239.97;6210991;23;20013;-76
2023/03/07 06:25:06;;;;;;;16.67;9.10;;;;;;;3.44;100.00;91244.09;6185043;23;20021;-76
2023/03/07 06:27:33;;;;;;;20.15;9.85;;;;;;;3.45;100.00;91239.72;6212712;23;20012;-76
2023/03/07 06:29:59;;;;;;;17.27;9.52;;;;;;;3.45;100.00;91235.31;6212581;23;20028;-76
2023/03/07 06:32:25;;;;;;;16.88;8.90;;;;;;;3.49;100.00;91236.31;6212910;23;20039;-77
2023/03/07 06:34:50;;;;;;;16.75;9.50;;;;;;;3.52;100.00;91235.00;6213332;23;20020;-77
2023/03/07 06:37:16;;;;;;;17.65;8.82;;;;;;;3.55;100.00;91230.03;6212546;23;20082;-76
2023/03/07 06:39:41;;;;;;;15.18;8.82;;;;;;;3.59;100.00;91230.25;6187236;23;20031;-77
2023/03/07 06:42:07;;;;;;;16.15;9.45;;;;;;;3.64;100.00;91232.78;6213385;23;20016;-76
2023/03/07 06:44:33;;;;;;;15.38;8.82;;;;;;;3.69;100.00;91235.34;6213918;23;20087;-76
2023/03/07 06:46:59;;;;;;;20.25;9.05;;;;;;;3.72;100.00;91234.78;6213955;23;20004;-77
2023/03/07 06:49:25;;;;;;;16.38;9.40;;;;;;;3.77;100.00;91231.38;6189314;23;20024;-76
2023/03/07 06:51:51;;;;;;;17.17;9.90;;;;;;;3.82;100.00;91227.97;6213828;23;20012;-77
2023/03/07 06:54:17;;;;;;;18.67;9.98;;;;;;;3.87;100.00;91231.28;6188326;23;20067;-76
2023/03/07 06:56:43;;;;;;;17.83;9.32;;;;;;;3.93;100.00;91240.53;6213404;23;20075;-76
2023/03/07 06:59:09;;;;;;;17.08;9.52;;;;;;;3.99;100.00;91232.72;6188786;23;20020;-77
2023/03/07 07:01:36;;;;;;;17.83;9.70;;;;;;;4.07;100.00;91245.03;6213015;23;20084;-76
2023/03/07 07:04:02;;;;;;;17.38;8.75;;;;;;;4.15;100.00;91245.22;6212619;23;20020;-76
2023/03/07 07:06:28;;;;;;;17.58;9.57;;;;;;;4.21;100.00;91245.94;6188385;23;20020;-76
2023/03/07 07:08:56;;;;;;;18.30;9.80;;;;;;;4.29;100.00;91244.53;6187935;23;20095;-77
2023/03/07 07:11:24;;;;;;;18.80;10.02;;;;;;;4.34;100.00;91244.47;6187658;23;20198;-76
2023/03/07 07:13:50;;;;;;;15.75;9.60;;;;;;;4.39;100.00;91244.44;6162894;23;20403;-77
2023/03/07 07:16:18;;;;;;;21.00;8.60;;;;;;;4.60;100.00;91252.72;6212864;23;20232;-76
2023/03/07 07:18:44;;;;;;;15.68;9.75;;;;;;;4.47;100.00;91250.81;6212587;23;20347;-76
2023/03/07 07:21:10;;;;;;;18.95;8.82;;;;;;;4.38;100.00;91256.59;6162628;23;20024;-76
2023/03/07 07:23:36;;;;;;;17.58;9.75;;;;;;;4.28;100.00;91254.13;6212675;23;20016;-76
2023/03/07 07:26:03;;;;;;;17.55;10.77;;;;;;;4.18;100.00;91252.41;6187774;23;20013;-77
2023/03/07 07:28:28;;;;;;;16.40;9.55;;;;;;;4.15;100.00;91254.81;6212673;23;20016;-76
2023/03/07 07:30:54;;;;;;;15.80;9.73;;;;;;;4.15;100.00;91254.81;6187185;23;20008;-77
2023/03/07 07:33:20;;;;;;;21.17;9.95;;;;;;;4.13;100.00;91255.06;6212201;23;20066;-77
2023/03/07 07:35:49;;;;;;;18.42;10.50;;;;;;;4.17;100.00;91260.47;6212369;23;20016;-76
2023/03/07 07:38:14;;;;;;;13.68;9.18;;;;;;;4.38;100.00;91266.19;6187205;23;20011;-77
2023/03/07 07:40:41;;;;;;;17.02;8.77;;;;;;;4.53;100.00;91260.81;6187255;23;20078;-77
2023/03/07 07:43:13;;;;;;;19.10;9.60;;;;;;;4.53;100.00;91267.84;6187307;23;20013;-76
2023/03/07 07:46:03;;;;;;;16.45;9.00;;;;;;;4.62;100.00;91275.78;6213475;23;20059;-77
2023/03/07 07:48:30;;;;;;;17.20;9.25;;;;;;;4.52;100.00;91276.66;6212285;23;20020;-77
2023/03/07 07:51:02;;;;;;;15.90;9.88;;;;;;;4.49;100.00;91269.44;6213888;23;20051;-77
2023/03/07 07:53:29;;;;;;;21.73;9.23;;;;;;;4.50;100.00;91273.56;6212170;23;20043;-77
2023/03/07 07:55:56;;;;;;;15.82;9.65;;;;;;;4.50;100.00;91273.56;6212018;23;20004;-76
2023/03/07 07:58:22;;;;;;;16.08;9.18;;;;;;;4.58;100.00;91275.53;6211928;23;20012;-77
2023/03/07 08:00:49;;;;;;;12.30;7.95;;;;;;;4.93;100.00;91286.50;6212014;23;20062;-77
2023/03/07 08:03:14;;;;;;;15.07;8.27;;;;;;;4.95;100.00;91286.97;6213018;23;20013;-77
2023/03/07 08:05:47;;;;;;;15.25;9.38;;;;;;;4.73;100.00;91292.75;6213712;23;20088;-77
2023/03/07 08:08:15;;;;;;;18.48;9.27;;;;;;;4.56;100.00;91283.59;6213969;23;20020;-77
2023/03/07 08:10:42;;;;;;;14.93;9.32;;;;;;;4.48;100.00;91291.19;6186267;23;20467;-76
2023/03/07 08:13:15;;;;;;;16.58;9.82;;;;;;;4.37;100.00;91291.34;6213236;23;20108;-76
2023/03/07 08:15:41;;;;;;;14.25;9.05;;;;;;;4.43;100.00;91288.69;6213666;23;20016;-77
2023/03/07 08:18:07;;;;;;;17.15;9.48;;;;;;;4.45;100.00;91286.59;6212165;23;20429;-77
2023/03/07 08:20:33;;;;;;;20.33;10.38;;;;;;;4.48;100.00;91283.44;6187235;23;20078;-76
2023/03/07 08:22:58;;;;;;;18.20;9.45;;;;;;;4.57;100.00;91289.53;6213152;23;20009;-76
2023/03/07 08:25:24;;;;;;;19.67;9.38;;;;;;;4.67;100.00;91297.19;6211979;23;20543;-76
2023/03/07 08:27:54;;;;;;;19.75;9.93;;;;;;;4.71;100.00;91294.84;6213681;23;20392;-76
2023/03/07 08:30:24;;;;;;;17.77;8.80;;;;;;;4.85;100.00;91292.31;6187630;23;20021;-77
2023/03/07 08:32:51;;;;;;;18.48;8.45;;;;;;;4.91;100.00;91293.78;6186648;23;20062;-77
2023/03/07 08:35:17;;;;;;;7.47;4.85;;;;;;;5.26;100.00;91286.56;6186833;23;20080;-77
2023/03/07 08:37:43;;;;;;;16.00;8.18;;;;;;;5.19;100.00;91287.69;6186622;23;20036;-76
2023/03/07 08:40:10;;;;;;;14.88;8.32;;;;;;;5.13;100.00;91285.44;6211855;23;20054;-76
2023/03/07 08:42:35;;;;;;;14.98;8.30;;;;;;;5.27;100.00;91290.69;6213296;23;20390;-76
2023/03/07 08:45:01;;;;;;;15.77;9.10;;;;;;;5.21;100.00;91290.75;6213212;23;20017;-76
2023/03/07 08:47:26;;;;;;;17.33;9.55;;;;;;;5.10;100.00;91291.97;6186813;23;20008;-77
2023/03/07 08:49:52;;;;;;;14.98;8.57;;;;;;;5.06;100.00;91290.22;6186476;23;20023;-76
2023/03/07 08:52:18;;;;;;;21.55;9.23;;;;;;;4.98;100.00;91289.03;6186834;23;20530;-77
2023/03/07 08:54:43;;;;;;;16.65;9.80;;;;;;;4.85;100.00;91289.72;6213163;23;20475;-77
2023/03/07 08:57:09;;;;;;;17.55;9.73;;;;;;;4.72;100.00;91291.94;6212191;23;20529;-76
2023/03/07 08:59:35;;;;;;;16.08;9.98;;;;;;;4.63;100.00;91291.03;6186588;23;20020;-77
2023/03/07 09:02:00;;;;;;;17.88;9.07;;;;;;;4.55;100.00;91291.66;6187166;23;20020;-77
2023/03/07 09:04:26;;;;;;;14.55;8.95;;;;;;;4.60;100.00;91294.19;6213413;23;20009;-77
2023/03/07 09:06:52;;;;;;;15.18;8.57;;;;;;;4.62;100.00;91292.09;6211423;23;20039;-76
2023/03/07 09:09:17;;;;;;;19.98;8.65;;;;;;;4.59;100.00;91292.63;6212489;23;20028;-77
2023/03/07 09:11:43;;;;;;;15.82;9.02;;;;;;;4.74;100.00;91300.22;6212897;23;20429;-76
2023/03/07 09:14:09;;;;;;;18.05;9.63;;;;;;;4.55;100.00;91297.59;6213089;23;20016;-76
2023/03/07 09:16:34;;;;;;;15.43;9.38;;;;;;;4.40;100.00;91290.00;6213131;23;20004;-77
2023/03/07 09:19:00;;;;;;;17.25;9.30;;;;;;;4.29;100.00;91302.31;6186839;23;20017;-77
2023/03/07 09:21:25;;;;;;;17.80;10.30;;;;;;;4.28;100.00;91297.38;6186089;23;20020;-76
2023/03/07 09:23:51;;;;;;;17.83;9.95;;;;;;;4.22;100.00;91285.56;6211541;23;20558;-76
2023/03/07 09:26:16;;;;;;;17.35;9.88;;;;;;;4.22;100.00;91283.72;6213076;23;20441;-76
2023/03/07 09:28:42;;;;;;;14.85;9.60;;;;;;;4.28;100.00;91279.25;6213100;23;20043;-76
2023/03/07 09:31:11;;;;;;;18.02;10.48;;;;;;;4.29;100.00;91289.34;6186597;23;20035;-76
2023/03/07 09:33:36;;;;;;;15.57;9.95;;;;;;;4.36;100.00;91284.59;6212878;23;20004;-77
2023/03/07 09:36:07;;;;;;;18.55;10.02;;;;;;;4.47;100.00;91284.50;6211554;23;20013;-76
2023/03/07 09:38:33;;;;;;;15.63;10.20;;;;;;;4.54;100.00;91282.31;6213099;23;20009;-76
2023/03/07 09:41:26;;;;;;;19.13;11.40;;;;;;;4.63;100.00;91278.06;6211322;23;20059;-76
2023/03/07 09:44:17;;;;;;;17.23;9.85;;;;;;;4.80;100.00;91287.97;6212788;23;20099;-77
2023/03/07 09:47:11;;;;;;;17.98;10.43;;;;;;;4.96;100.00;91281.53;6211464;23;20456;-76
2023/03/07 09:49:46;;;;;;;17.95;10.50;;;;;;;5.10;100.00;91286.78;6212882;23;20015;-76
2023/03/07 09:52:18;;;;;;;15.85;9.73;;;;;;;5.29;100.00;91298.94;6212893;23;20008;-76
2023/03/07 09:55:00;;;;;;;16.75;10.30;;;;;;;5.51;100.00;91301.72;6212748;23;20087;-76
2023/03/07 09:57:31;;;;;;;19.55;10.18;;;;;;;5.73;100.00;91300.38;6186274;23;20437;-77
2023/03/07 10:00:18;;;;;;;17.55;9.68;;;;;;;5.87;100.00;91305.59;6212937;23;20019;-76
2023/03/07 10:03:23;;;;;;;14.93;8.15;;;;;;;6.42;100.00;91293.47;6214136;23;20013;-76
2023/03/07 10:05:50;;;;;;;13.77;8.73;;;;;;;6.31;100.00;91297.31;6213385;23;20050;-76
2023/03/07 10:08:20;;;;;;;17.88;8.80;;;;;;;6.32;100.00;91292.88;6213927;23;20374;-76
2023/03/07 10:11:14;;;;;;;15.75;8.73;;;;;;;6.61;100.00;91295.19;6214069;23;20008;-76
2023/03/07 10:13:49;;;;;;;11.82;6.65;;;;;;;6.54;100.00;91289.59;6214242;23;20087;-77
2023/03/07 10:16:14;;;;;;;16.02;8.82;;;;;;;6.24;100.00;91296.94;6214748;23;20009;-77
2023/03/07 10:19:25;;;;;;;13.25;8.40;;;;;;;6.83;100.00;91287.44;6163586;23;20037;-77
2023/03/07 10:21:56;;;;;;;15.68;9.20;;;;;;;6.99;100.00;91295.72;6188195;23;20460;-76
2023/03/07 10:24:26;;;;;;;8.13;5.47;;;;;;;6.92;100.00;91289.38;6188028;23;20058;-76
2023/03/07 10:27:09;;;;;;;9.20;5.20;;;;;;;6.72;100.00;91293.16;6214916;23;20593;-76
2023/03/07 10:29:46;;;;;;;11.70;5.85;;;;;;;6.46;100.00;91273.63;6214595;23;20013;-76
2023/03/07 10:32:38;;;;;;;13.25;8.18;;;;;;;6.59;100.00;91286.91;6214485;23;20018;-76
2023/03/07 10:35:10;;;;;;;19.92;9.40;;;;;;;6.60;100.00;91275.47;6214823;23;20416;-76
2023/03/07 10:37:49;;;;;;;17.03;9.10;;;;;;;6.93;100.00;91272.69;6188009;23;20020;-77
2023/03/07 10:40:39;;;;;;;13.88;9.10;;;;;;;7.24;100.00;91270.97;6214329;23;20032;-76
2023/03/07 10:43:05;;;;;;;14.65;8.60;;;;;;;8.03;100.00;91263.63;6187777;23;20229;-76
2023/03/07 10:45:32;;;;;;;11.40;7.07;;;;;;;8.18;100.00;91268.47;6214185;23;20059;-77
2023/03/07 10:48:04;;;;;;;17.73;8.90;;;;;;;8.09;100.00;91263.22;6214443;23;20004;-77
2023/03/07 10:50:34;;;;;;;13.05;7.75;;;;;;;8.00;100.00;91264.25;6187785;23;20008;-76
2023/03/07 10:53:03;;;;;;;14.48;8.65;;;;;;;7.56;100.00;91263.97;6214436;23;20391;-76
2023/03/07 10:55:37;;;;;;;13.40;6.38;;;;;;;7.61;100.00;91270.91;6214302;23;20012;-77
2023/03/07 10:58:24;;;;;;;14.45;5.18;;;;;;;7.46;100.00;91261.63;6212859;23;20024;-76
2023/03/07 11:01:10;;;;;;;14.18;8.88;;;;;;;7.36;100.00;91273.03;6214037;23;20012;-76
2023/03/07 11:04:01;;;;;;;16.67;8.82;;;;;;;7.16;100.00;91269.06;6179484;23;20016;-76
2023/03/07 11:06:40;;;;;;;16.15;9.15;;;;;;;7.18;100.00;91269.56;6214720;23;20082;-76
2023/03/07 11:09:09;;;;;;;17.83;9.00;;;;;;;7.47;100.00;91268.38;6187912;23;20017;-76
2023/03/07 11:11:36;;;;;;;17.10;6.90;;;;;;;7.66;100.00;91266.34;6212395;23;20001;-77
2023/03/07 11:14:12;;;;;;;15.10;8.05;;;;;;;7.66;100.00;91266.34;6187728;23;20016;-76
2023/03/07 11:16:46;;;;;;;14.63;8.77;;;;;;;7.55;100.00;91265.06;6213992;23;20464;-77
2023/03/07 11:19:28;;;;;;;15.00;8.93;;;;;;;7.14;100.00;91271.19;6212339;23;20019;-76
2023/03/07 11:21:55;;;;;;;16.20;8.68;;;;;;;7.11;100.00;91269.16;6212512;23;20425;-77
2023/03/07 11:24:35;;;;;;;17.23;9.38;;;;;;;7.14;100.00;91263.41;6214375;22;20032;-77
2023/03/07 11:27:01;;;;;;;19.27;9.50;;;;;;;7.23;100.00;91259.03;6189241;23;20020;-77
2023/03/07 11:29:32;;;;;;;14.32;8.90;;;;;;;7.34;100.00;91253.56;6214077;23;20390;-77